sensor_id;sensor_type;location;lat;lon;timestamp;P1;durP1;ratioP1;P2;durP2;ratioP2
20842;SDS011;26719;51.440;-2.574;2023-03-02T00:04:07;0.20;;;0.20;;
20842;SDS011;26719;51.440;-2.574;2023-03-02T00:06:34;0.20;;;0.20;;
20842;SDS011;26719;51.440;-2.574;2023-03-02T00:09:01;0.20;;;0.20;;
20842;SDS011;26719;51.440;-2.574;2023-03-02T00:11:28;0.20;;;0.20;;
20842;SDS011;26719;51.440;-2.574;2023-03-02T00:13:55;0.20;;;0.20;;
20842;SDS011;26719;51.440;-2.574;2023-03-02T00:16:22;0.20;;;0.20;;
20842;SDS011;26719;51.440;-2.574;2023-03-02T00:18:48;0.20;;;0.20;;
20842;SDS011;26719;51.440;-2.574;2023-03-02T00:21:14;0.20;;;0.20;;
20842;SDS011;26719;51.440;-2.574;2023-03-02T00:23:40;0.20;;;0.20;;
20842;SDS011;26719;51.440;-2.574;2023-03-02T00:26:06;0.20;;;0.20;;
20842;SDS011;26719;51.440;-2.574;2023-03-02T00:28:32;0.20;;;0.20;;
20842;SDS011;26719;51.440;-2.574;2023-03-02T00:30:59;0.20;;;0.20;;
20842;SDS011;26719;51.440;-2.574;2023-03-02T00:33:25;0.20;;;0.20;;
20842;SDS011;26719;51.440;-2.574;2023-03-02T00:35:51;0.20;;;0.20;;
20842;SDS011;26719;51.440;-2.574;2023-03-02T00:38:17;0.10;;;0.10;;
20842;SDS011;26719;51.440;-2.574;2023-03-02T00:40:44;0.10;;;0.10;;
20842;SDS011;26719;51.440;-2.574;2023-03-02T00:43:10;0.10;;;0.10;;
20842;SDS011;26719;51.440;-2.574;2023-03-02T00:45:36;0.10;;;0.10;;
20842;SDS011;26719;51.440;-2.574;2023-03-02T00:48:02;0.20;;;0.20;;
20842;SDS011;26719;51.440;-2.574;2023-03-02T00:50:28;0.20;;;0.20;;
20842;SDS011;26719;51.440;-2.574;2023-03-02T00:52:54;0.13;;;0.13;;
20842;SDS011;26719;51.440;-2.574;2023-03-02T00:55:20;0.10;;;0.10;;
20842;SDS011;26719;51.440;-2.574;2023-03-02T00:57:46;0.20;;;0.20;;
20842;SDS011;26719;51.440;-2.574;2023-03-02T01:00:20;0.17;;;0.17;;
20842;SDS011;26719;51.440;-2.574;2023-03-02T01:02:46;0.10;;;0.10;;
20842;SDS011;26719;51.440;-2.574;2023-03-02T01:05:12;0.30;;;0.30;;
20842;SDS011;26719;51.440;-2.574;2023-03-02T01:07:38;0.20;;;0.20;;
20842;SDS011;26719;51.440;-2.574;2023-03-02T01:10:04;0.20;;;0.20;;
20842;SDS011;26719;51.440;-2.574;2023-03-02T01:12:31;0.17;;;0.17;;
20842;SDS011;26719;51.440;-2.574;2023-03-02T01:14:57;0.20;;;0.20;;
20842;SDS011;26719;51.440;-2.574;2023-03-02T01:17:23;0.20;;;0.20;;
20842;SDS011;26719;51.440;-2.574;2023-03-02T01:19:50;0.20;;;0.20;;
20842;SDS011;26719;51.440;-2.574;2023-03-02T01:22:16;0.20;;;0.20;;
20842;SDS011;26719;51.440;-2.574;2023-03-02T01:24:43;0.20;;;0.20;;
20842;SDS011;26719;51.440;-2.574;2023-03-02T01:27:09;0.20;;;0.20;;
20842;SDS011;26719;51.440;-2.574;2023-03-02T01:29:35;0.30;;;0.30;;
20842;SDS011;26719;51.440;-2.574;2023-03-02T01:32:02;0.20;;;0.20;;
20842;SDS011;26719;51.440;-2.574;2023-03-02T01:34:28;0.20;;;0.20;;
20842;SDS011;26719;51.440;-2.574;2023-03-02T01:36:54;0.30;;;0.30;;
20842;SDS011;26719;51.440;-2.574;2023-03-02T01:39:20;0.20;;;0.20;;
20842;SDS011;26719;51.440;-2.574;2023-03-02T01:41:50;0.10;;;0.10;;
20842;SDS011;26719;51.440;-2.574;2023-03-02T01:49:40;0.30;;;0.30;;
20842;SDS011;26719;51.440;-2.574;2023-03-02T01:52:08;0.17;;;0.17;;
20842;SDS011;26719;51.440;-2.574;2023-03-02T01:54:36;0.20;;;0.20;;
20842;SDS011;26719;51.440;-2.574;2023-03-02T01:57:02;0.20;;;0.20;;
20842;SDS011;26719;51.440;-2.574;2023-03-02T01:59:29;0.10;;;0.10;;
20842;SDS011;26719;51.440;-2.574;2023-03-02T02:01:57;0.20;;;0.20;;
20842;SDS011;26719;51.440;-2.574;2023-03-02T02:04:23;0.20;;;0.20;;
20842;SDS011;26719;51.440;-2.574;2023-03-02T02:06:52;0.30;;;0.30;;
20842;SDS011;26719;51.440;-2.574;2023-03-02T02:09:20;0.30;;;0.30;;
20842;SDS011;26719;51.440;-2.574;2023-03-02T02:11:47;0.20;;;0.20;;
20842;SDS011;26719;51.440;-2.574;2023-03-02T02:14:13;0.27;;;0.27;;
20842;SDS011;26719;51.440;-2.574;2023-03-02T02:16:39;0.30;;;0.30;;
20842;SDS011;26719;51.440;-2.574;2023-03-02T02:19:11;0.20;;;0.20;;
20842;SDS011;26719;51.440;-2.574;2023-03-02T02:21:39;0.20;;;0.20;;
20842;SDS011;26719;51.440;-2.574;2023-03-02T02:24:14;0.40;;;0.40;;
20842;SDS011;26719;51.440;-2.574;2023-03-02T02:26:45;0.20;;;0.20;;
20842;SDS011;26719;51.440;-2.574;2023-03-02T02:29:13;0.30;;;0.30;;
20842;SDS011;26719;51.440;-2.574;2023-03-02T02:31:44;0.10;;;0.10;;
20842;SDS011;26719;51.440;-2.574;2023-03-02T02:34:21;0.20;;;0.20;;
20842;SDS011;26719;51.440;-2.574;2023-03-02T02:36:50;0.20;;;0.20;;
20842;SDS011;26719;51.440;-2.574;2023-03-02T02:39:20;0.20;;;0.20;;
20842;SDS011;26719;51.440;-2.574;2023-03-02T02:41:48;0.17;;;0.17;;
20842;SDS011;26719;51.440;-2.574;2023-03-02T02:44:16;0.20;;;0.20;;
20842;SDS011;26719;51.440;-2.574;2023-03-02T02:46:43;0.20;;;0.20;;
20842;SDS011;26719;51.440;-2.574;2023-03-02T02:49:43;0.30;;;0.30;;
20842;SDS011;26719;51.440;-2.574;2023-03-02T02:52:02;0.20;;;0.20;;
20842;SDS011;26719;51.440;-2.574;2023-03-02T02:54:28;0.17;;;0.17;;
20842;SDS011;26719;51.440;-2.574;2023-03-02T02:56:56;0.20;;;0.20;;
20842;SDS011;26719;51.440;-2.574;2023-03-02T02:59:26;0.20;;;0.20;;
20842;SDS011;26719;51.440;-2.574;2023-03-02T03:01:53;0.27;;;0.27;;
20842;SDS011;26719;51.440;-2.574;2023-03-02T03:04:24;0.20;;;0.20;;
20842;SDS011;26719;51.440;-2.574;2023-03-02T03:06:55;0.23;;;0.23;;
20842;SDS011;26719;51.440;-2.574;2023-03-02T03:09:22;0.30;;;0.30;;
20842;SDS011;26719;51.440;-2.574;2023-03-02T03:11:49;0.20;;;0.20;;
20842;SDS011;26719;51.440;-2.574;2023-03-02T03:14:17;0.10;;;0.10;;
20842;SDS011;26719;51.440;-2.574;2023-03-02T03:16:44;0.30;;;0.30;;
20842;SDS011;26719;51.440;-2.574;2023-03-02T03:21:40;0.20;;;0.20;;
20842;SDS011;26719;51.440;-2.574;2023-03-02T03:24:06;0.20;;;0.20;;
20842;SDS011;26719;51.440;-2.574;2023-03-02T03:26:32;0.10;;;0.10;;
20842;SDS011;26719;51.440;-2.574;2023-03-02T03:28:58;0.13;;;0.13;;
20842;SDS011;26719;51.440;-2.574;2023-03-02T03:31:25;0.10;;;0.10;;
20842;SDS011;26719;51.440;-2.574;2023-03-02T03:33:53;0.20;;;0.20;;
20842;SDS011;26719;51.440;-2.574;2023-03-02T03:36:19;0.20;;;0.20;;
20842;SDS011;26719;51.440;-2.574;2023-03-02T03:38:45;0.27;;;0.27;;
20842;SDS011;26719;51.440;-2.574;2023-03-02T03:41:11;0.30;;;0.30;;
20842;SDS011;26719;51.440;-2.574;2023-03-02T03:43:37;0.20;;;0.20;;
20842;SDS011;26719;51.440;-2.574;2023-03-02T03:46:03;0.30;;;0.30;;
20842;SDS011;26719;51.440;-2.574;2023-03-02T03:48:29;0.17;;;0.17;;
20842;SDS011;26719;51.440;-2.574;2023-03-02T03:50:57;0.30;;;0.30;;
20842;SDS011;26719;51.440;-2.574;2023-03-02T03:53:23;0.20;;;0.20;;
20842;SDS011;26719;51.440;-2.574;2023-03-02T03:55:49;0.20;;;0.20;;
20842;SDS011;26719;51.440;-2.574;2023-03-02T03:58:15;0.20;;;0.20;;
20842;SDS011;26719;51.440;-2.574;2023-03-02T04:00:41;0.30;;;0.30;;
20842;SDS011;26719;51.440;-2.574;2023-03-02T04:03:07;0.27;;;0.27;;
20842;SDS011;26719;51.440;-2.574;2023-03-02T04:05:33;0.20;;;0.20;;
20842;SDS011;26719;51.440;-2.574;2023-03-02T04:07:59;0.20;;;0.20;;
20842;SDS011;26719;51.440;-2.574;2023-03-02T04:10:26;0.20;;;0.20;;
20842;SDS011;26719;51.440;-2.574;2023-03-02T04:12:52;0.20;;;0.20;;
20842;SDS011;26719;51.440;-2.574;2023-03-02T04:15:18;0.20;;;0.20;;
20842;SDS011;26719;51.440;-2.574;2023-03-02T04:17:44;0.20;;;0.20;;
20842;SDS011;26719;51.440;-2.574;2023-03-02T04:20:11;0.23;;;0.23;;
20842;SDS011;26719;51.440;-2.574;2023-03-02T04:22:41;0.30;;;0.30;;
20842;SDS011;26719;51.440;-2.574;2023-03-02T04:25:07;0.27;;;0.27;;
20842;SDS011;26719;51.440;-2.574;2023-03-02T04:27:33;0.20;;;0.20;;
20842;SDS011;26719;51.440;-2.574;2023-03-02T04:29:59;0.30;;;0.30;;
20842;SDS011;26719;51.440;-2.574;2023-03-02T04:32:25;0.30;;;0.30;;
20842;SDS011;26719;51.440;-2.574;2023-03-02T04:34:51;0.20;;;0.20;;
20842;SDS011;26719;51.440;-2.574;2023-03-02T04:37:17;0.20;;;0.20;;
20842;SDS011;26719;51.440;-2.574;2023-03-02T04:39:43;0.20;;;0.20;;
20842;SDS011;26719;51.440;-2.574;2023-03-02T04:42:14;0.20;;;0.20;;
20842;SDS011;26719;51.440;-2.574;2023-03-02T04:44:40;0.20;;;0.20;;
20842;SDS011;26719;51.440;-2.574;2023-03-02T04:47:06;0.30;;;0.30;;
20842;SDS011;26719;51.440;-2.574;2023-03-02T04:49:32;0.20;;;0.20;;
20842;SDS011;26719;51.440;-2.574;2023-03-02T04:51:58;0.30;;;0.30;;
20842;SDS011;26719;51.440;-2.574;2023-03-02T04:54:24;0.20;;;0.20;;
20842;SDS011;26719;51.440;-2.574;2023-03-02T04:56:51;0.20;;;0.20;;
20842;SDS011;26719;51.440;-2.574;2023-03-02T04:59:18;0.27;;;0.27;;
20842;SDS011;26719;51.440;-2.574;2023-03-02T05:01:44;0.20;;;0.20;;
20842;SDS011;26719;51.440;-2.574;2023-03-02T05:04:11;0.30;;;0.30;;
20842;SDS011;26719;51.440;-2.574;2023-03-02T05:06:37;0.10;;;0.10;;
20842;SDS011;26719;51.440;-2.574;2023-03-02T05:09:03;0.20;;;0.20;;
20842;SDS011;26719;51.440;-2.574;2023-03-02T05:11:29;0.10;;;0.10;;
20842;SDS011;26719;51.440;-2.574;2023-03-02T05:13:59;0.10;;;0.10;;
20842;SDS011;26719;51.440;-2.574;2023-03-02T05:16:26;0.20;;;0.20;;
20842;SDS011;26719;51.440;-2.574;2023-03-02T05:18:56;0.20;;;0.20;;
20842;SDS011;26719;51.440;-2.574;2023-03-02T05:21:22;0.20;;;0.20;;
20842;SDS011;26719;51.440;-2.574;2023-03-02T05:23:48;0.20;;;0.20;;
20842;SDS011;26719;51.440;-2.574;2023-03-02T05:26:14;0.30;;;0.30;;
20842;SDS011;26719;51.440;-2.574;2023-03-02T05:28:40;0.20;;;0.20;;
20842;SDS011;26719;51.440;-2.574;2023-03-02T05:31:07;0.30;;;0.30;;
20842;SDS011;26719;51.440;-2.574;2023-03-02T05:33:33;0.20;;;0.20;;
20842;SDS011;26719;51.440;-2.574;2023-03-02T05:35:59;0.30;;;0.30;;
20842;SDS011;26719;51.440;-2.574;2023-03-02T05:38:25;0.27;;;0.27;;
20842;SDS011;26719;51.440;-2.574;2023-03-02T05:40:52;0.20;;;0.20;;
20842;SDS011;26719;51.440;-2.574;2023-03-02T05:43:19;0.20;;;0.20;;
20842;SDS011;26719;51.440;-2.574;2023-03-02T05:45:45;0.30;;;0.30;;
20842;SDS011;26719;51.440;-2.574;2023-03-02T05:48:12;0.20;;;0.20;;
20842;SDS011;26719;51.440;-2.574;2023-03-02T05:50:38;0.20;;;0.20;;
20842;SDS011;26719;51.440;-2.574;2023-03-02T05:53:04;0.23;;;0.23;;
20842;SDS011;26719;51.440;-2.574;2023-03-02T05:55:30;0.20;;;0.20;;
20842;SDS011;26719;51.440;-2.574;2023-03-02T05:58:01;0.20;;;0.20;;
20842;SDS011;26719;51.440;-2.574;2023-03-02T06:00:27;0.20;;;0.20;;
20842;SDS011;26719;51.440;-2.574;2023-03-02T06:02:54;0.33;;;0.33;;
20842;SDS011;26719;51.440;-2.574;2023-03-02T06:05:20;0.20;;;0.20;;
20842;SDS011;26719;51.440;-2.574;2023-03-02T06:07:48;0.40;;;0.40;;
20842;SDS011;26719;51.440;-2.574;2023-03-02T06:10:15;0.20;;;0.20;;
20842;SDS011;26719;51.440;-2.574;2023-03-02T06:12:41;0.20;;;0.20;;
20842;SDS011;26719;51.440;-2.574;2023-03-02T06:15:07;0.30;;;0.30;;
20842;SDS011;26719;51.440;-2.574;2023-03-02T06:17:34;0.20;;;0.20;;
20842;SDS011;26719;51.440;-2.574;2023-03-02T06:20:00;0.13;;;0.13;;
20842;SDS011;26719;51.440;-2.574;2023-03-02T06:22:26;0.30;;;0.30;;
20842;SDS011;26719;51.440;-2.574;2023-03-02T06:24:52;0.30;;;0.30;;
20842;SDS011;26719;51.440;-2.574;2023-03-02T06:27:20;0.20;;;0.20;;
20842;SDS011;26719;51.440;-2.574;2023-03-02T06:29:49;0.33;;;0.33;;
20842;SDS011;26719;51.440;-2.574;2023-03-02T06:32:15;0.20;;;0.20;;
20842;SDS011;26719;51.440;-2.574;2023-03-02T06:34:41;0.40;;;0.40;;
20842;SDS011;26719;51.440;-2.574;2023-03-02T06:37:07;0.20;;;0.20;;
20842;SDS011;26719;51.440;-2.574;2023-03-02T06:39:34;0.30;;;0.30;;
20842;SDS011;26719;51.440;-2.574;2023-03-02T06:42:00;0.30;;;0.30;;
20842;SDS011;26719;51.440;-2.574;2023-03-02T06:44:26;0.30;;;0.30;;
20842;SDS011;26719;51.440;-2.574;2023-03-02T06:46:52;0.30;;;0.30;;
20842;SDS011;26719;51.440;-2.574;2023-03-02T06:49:18;0.40;;;0.40;;
20842;SDS011;26719;51.440;-2.574;2023-03-02T06:51:44;0.20;;;0.20;;
20842;SDS011;26719;51.440;-2.574;2023-03-02T06:54:10;0.30;;;0.30;;
20842;SDS011;26719;51.440;-2.574;2023-03-02T06:56:36;0.40;;;0.40;;
20842;SDS011;26719;51.440;-2.574;2023-03-02T06:59:02;0.17;;;0.17;;
20842;SDS011;26719;51.440;-2.574;2023-03-02T07:01:28;0.30;;;0.30;;
20842;SDS011;26719;51.440;-2.574;2023-03-02T07:03:59;0.20;;;0.20;;
20842;SDS011;26719;51.440;-2.574;2023-03-02T07:06:25;0.23;;;0.23;;
20842;SDS011;26719;51.440;-2.574;2023-03-02T07:08:51;0.40;;;0.40;;
20842;SDS011;26719;51.440;-2.574;2023-03-02T07:11:17;0.30;;;0.30;;
20842;SDS011;26719;51.440;-2.574;2023-03-02T07:13:43;0.20;;;0.20;;
20842;SDS011;26719;51.440;-2.574;2023-03-02T07:16:10;0.23;;;0.23;;
20842;SDS011;26719;51.440;-2.574;2023-03-02T07:18:36;0.37;;;0.37;;
20842;SDS011;26719;51.440;-2.574;2023-03-02T07:21:02;0.30;;;0.30;;
20842;SDS011;26719;51.440;-2.574;2023-03-02T07:23:28;0.20;;;0.20;;
20842;SDS011;26719;51.440;-2.574;2023-03-02T07:25:54;0.30;;;0.30;;
20842;SDS011;26719;51.440;-2.574;2023-03-02T07:28:21;0.30;;;0.30;;
20842;SDS011;26719;51.440;-2.574;2023-03-02T07:30:48;0.20;;;0.20;;
20842;SDS011;26719;51.440;-2.574;2023-03-02T07:33:15;0.20;;;0.20;;
20842;SDS011;26719;51.440;-2.574;2023-03-02T07:35:41;0.30;;;0.30;;
20842;SDS011;26719;51.440;-2.574;2023-03-02T07:38:07;0.30;;;0.30;;
20842;SDS011;26719;51.440;-2.574;2023-03-02T07:40:33;0.30;;;0.30;;
20842;SDS011;26719;51.440;-2.574;2023-03-02T07:42:59;0.30;;;0.30;;
20842;SDS011;26719;51.440;-2.574;2023-03-02T07:45:25;0.20;;;0.20;;
20842;SDS011;26719;51.440;-2.574;2023-03-02T07:47:51;0.20;;;0.20;;
20842;SDS011;26719;51.440;-2.574;2023-03-02T07:50:17;0.30;;;0.30;;
20842;SDS011;26719;51.440;-2.574;2023-03-02T07:52:43;0.30;;;0.30;;
20842;SDS011;26719;51.440;-2.574;2023-03-02T07:55:09;0.40;;;0.40;;
20842;SDS011;26719;51.440;-2.574;2023-03-02T07:57:35;0.30;;;0.30;;
20842;SDS011;26719;51.440;-2.574;2023-03-02T08:00:02;0.30;;;0.30;;
20842;SDS011;26719;51.440;-2.574;2023-03-02T08:02:28;0.30;;;0.30;;
20842;SDS011;26719;51.440;-2.574;2023-03-02T08:04:54;0.33;;;0.33;;
20842;SDS011;26719;51.440;-2.574;2023-03-02T08:07:20;0.30;;;0.30;;
20842;SDS011;26719;51.440;-2.574;2023-03-02T08:09:46;0.40;;;0.40;;
20842;SDS011;26719;51.440;-2.574;2023-03-02T08:12:12;0.30;;;0.30;;
20842;SDS011;26719;51.440;-2.574;2023-03-02T08:14:38;0.30;;;0.30;;
20842;SDS011;26719;51.440;-2.574;2023-03-02T08:17:05;0.23;;;0.23;;
20842;SDS011;26719;51.440;-2.574;2023-03-02T08:19:31;0.40;;;0.40;;
20842;SDS011;26719;51.440;-2.574;2023-03-02T08:21:57;0.23;;;0.23;;
20842;SDS011;26719;51.440;-2.574;2023-03-02T08:24:25;0.30;;;0.30;;
20842;SDS011;26719;51.440;-2.574;2023-03-02T08:26:51;0.30;;;0.30;;
20842;SDS011;26719;51.440;-2.574;2023-03-02T08:29:17;0.30;;;0.30;;
20842;SDS011;26719;51.440;-2.574;2023-03-02T08:31:43;0.30;;;0.30;;
20842;SDS011;26719;51.440;-2.574;2023-03-02T08:34:09;0.30;;;0.30;;
20842;SDS011;26719;51.440;-2.574;2023-03-02T08:36:35;0.30;;;0.30;;
20842;SDS011;26719;51.440;-2.574;2023-03-02T08:39:01;0.40;;;0.40;;
20842;SDS011;26719;51.440;-2.574;2023-03-02T08:41:27;0.30;;;0.30;;
20842;SDS011;26719;51.440;-2.574;2023-03-02T08:43:54;0.33;;;0.33;;
20842;SDS011;26719;51.440;-2.574;2023-03-02T08:46:20;0.30;;;0.30;;
20842;SDS011;26719;51.440;-2.574;2023-03-02T08:48:47;0.40;;;0.40;;
20842;SDS011;26719;51.440;-2.574;2023-03-02T08:51:16;0.30;;;0.30;;
20842;SDS011;26719;51.440;-2.574;2023-03-02T08:53:43;0.30;;;0.30;;
20842;SDS011;26719;51.440;-2.574;2023-03-02T08:56:29;0.30;;;0.30;;
20842;SDS011;26719;51.440;-2.574;2023-03-02T08:59:03;0.27;;;0.27;;
20842;SDS011;26719;51.440;-2.574;2023-03-02T09:01:31;0.20;;;0.20;;
20842;SDS011;26719;51.440;-2.574;2023-03-02T09:03:57;0.30;;;0.30;;
20842;SDS011;26719;51.440;-2.574;2023-03-02T09:06:25;0.50;;;0.50;;
20842;SDS011;26719;51.440;-2.574;2023-03-02T09:08:51;0.40;;;0.40;;
20842;SDS011;26719;51.440;-2.574;2023-03-02T09:11:17;0.30;;;0.30;;
20842;SDS011;26719;51.440;-2.574;2023-03-02T09:13:43;0.30;;;0.30;;
20842;SDS011;26719;51.440;-2.574;2023-03-02T09:16:10;0.30;;;0.30;;
20842;SDS011;26719;51.440;-2.574;2023-03-02T09:18:36;0.23;;;0.23;;
20842;SDS011;26719;51.440;-2.574;2023-03-02T09:21:02;0.30;;;0.30;;
20842;SDS011;26719;51.440;-2.574;2023-03-02T09:23:29;0.20;;;0.20;;
20842;SDS011;26719;51.440;-2.574;2023-03-02T09:25:55;0.20;;;0.20;;
20842;SDS011;26719;51.440;-2.574;2023-03-02T09:28:21;0.20;;;0.20;;
20842;SDS011;26719;51.440;-2.574;2023-03-02T09:30:48;0.20;;;0.20;;
20842;SDS011;26719;51.440;-2.574;2023-03-02T09:33:14;0.30;;;0.30;;
20842;SDS011;26719;51.440;-2.574;2023-03-02T09:35:40;0.20;;;0.20;;
20842;SDS011;26719;51.440;-2.574;2023-03-02T09:38:07;0.30;;;0.30;;
20842;SDS011;26719;51.440;-2.574;2023-03-02T09:40:36;0.20;;;0.20;;
20842;SDS011;26719;51.440;-2.574;2023-03-02T09:43:29;0.20;;;0.20;;
20842;SDS011;26719;51.440;-2.574;2023-03-02T09:56:16;0.30;;;0.30;;
20842;SDS011;26719;51.440;-2.574;2023-03-02T09:58:58;0.30;;;0.30;;
20842;SDS011;26719;51.440;-2.574;2023-03-02T10:01:32;0.20;;;0.20;;
20842;SDS011;26719;51.440;-2.574;2023-03-02T10:04:07;0.30;;;0.30;;
20842;SDS011;26719;51.440;-2.574;2023-03-02T10:06:34;0.30;;;0.30;;
20842;SDS011;26719;51.440;-2.574;2023-03-02T10:09:00;0.20;;;0.20;;
20842;SDS011;26719;51.440;-2.574;2023-03-02T10:11:45;0.30;;;0.30;;
20842;SDS011;26719;51.440;-2.574;2023-03-02T10:14:23;0.40;;;0.40;;
20842;SDS011;26719;51.440;-2.574;2023-03-02T10:21:57;0.30;;;0.30;;
20842;SDS011;26719;51.440;-2.574;2023-03-02T10:26:57;0.20;;;0.20;;
20842;SDS011;26719;51.440;-2.574;2023-03-02T10:31:57;0.40;;;0.40;;
20842;SDS011;26719;51.440;-2.574;2023-03-02T10:34:25;0.30;;;0.30;;
20842;SDS011;26719;51.440;-2.574;2023-03-02T10:36:52;0.20;;;0.20;;
20842;SDS011;26719;51.440;-2.574;2023-03-02T10:39:18;0.30;;;0.30;;
20842;SDS011;26719;51.440;-2.574;2023-03-02T10:46:46;0.30;;;0.30;;
20842;SDS011;26719;51.440;-2.574;2023-03-02T10:49:28;0.30;;;0.30;;
20842;SDS011;26719;51.440;-2.574;2023-03-02T10:51:57;0.40;;;0.40;;
20842;SDS011;26719;51.440;-2.574;2023-03-02T10:54:24;0.40;;;0.40;;
20842;SDS011;26719;51.440;-2.574;2023-03-02T10:56:50;0.30;;;0.30;;
20842;SDS011;26719;51.440;-2.574;2023-03-02T11:02:02;0.20;;;0.20;;
20842;SDS011;26719;51.440;-2.574;2023-03-02T11:04:29;0.30;;;0.30;;
20842;SDS011;26719;51.440;-2.574;2023-03-02T11:07:05;0.30;;;0.30;;
20842;SDS011;26719;51.440;-2.574;2023-03-02T11:09:32;0.30;;;0.30;;
20842;SDS011;26719;51.440;-2.574;2023-03-02T11:11:58;0.30;;;0.30;;
20842;SDS011;26719;51.440;-2.574;2023-03-02T11:14:24;0.40;;;0.40;;
20842;SDS011;26719;51.440;-2.574;2023-03-02T11:16:51;0.43;;;0.43;;
20842;SDS011;26719;51.440;-2.574;2023-03-02T11:19:30;0.30;;;0.30;;
20842;SDS011;26719;51.440;-2.574;2023-03-02T11:22:10;0.30;;;0.30;;
20842;SDS011;26719;51.440;-2.574;2023-03-02T11:24:47;0.30;;;0.30;;
20842;SDS011;26719;51.440;-2.574;2023-03-02T11:32:11;0.40;;;0.40;;
20842;SDS011;26719;51.440;-2.574;2023-03-02T11:42:10;0.30;;;0.30;;
20842;SDS011;26719;51.440;-2.574;2023-03-02T11:44:40;0.30;;;0.30;;
20842;SDS011;26719;51.440;-2.574;2023-03-02T11:47:06;0.30;;;0.30;;
20842;SDS011;26719;51.440;-2.574;2023-03-02T11:49:38;0.30;;;0.30;;
20842;SDS011;26719;51.440;-2.574;2023-03-02T11:52:13;0.30;;;0.30;;
20842;SDS011;26719;51.440;-2.574;2023-03-02T11:54:43;0.30;;;0.30;;
20842;SDS011;26719;51.440;-2.574;2023-03-02T11:57:18;0.37;;;0.37;;
20842;SDS011;26719;51.440;-2.574;2023-03-02T11:59:45;0.30;;;0.30;;
20842;SDS011;26719;51.440;-2.574;2023-03-02T12:02:11;0.30;;;0.30;;
20842;SDS011;26719;51.440;-2.574;2023-03-02T12:04:38;0.40;;;0.40;;
20842;SDS011;26719;51.440;-2.574;2023-03-02T12:07:17;0.40;;;0.40;;
20842;SDS011;26719;51.440;-2.574;2023-03-02T12:09:54;0.40;;;0.40;;
20842;SDS011;26719;51.440;-2.574;2023-03-02T12:20:45;0.30;;;0.30;;
20842;SDS011;26719;51.440;-2.574;2023-03-02T12:23:22;0.30;;;0.30;;
20842;SDS011;26719;51.440;-2.574;2023-03-02T12:25:59;0.40;;;0.40;;
20842;SDS011;26719;51.440;-2.574;2023-03-02T12:28:27;0.40;;;0.40;;
20842;SDS011;26719;51.440;-2.574;2023-03-02T12:30:54;0.40;;;0.40;;
20842;SDS011;26719;51.440;-2.574;2023-03-02T12:33:21;0.30;;;0.30;;
20842;SDS011;26719;51.440;-2.574;2023-03-02T12:35:50;0.30;;;0.30;;
20842;SDS011;26719;51.440;-2.574;2023-03-02T12:43:34;0.37;;;0.37;;
20842;SDS011;26719;51.440;-2.574;2023-03-02T12:48:46;0.40;;;0.40;;
20842;SDS011;26719;51.440;-2.574;2023-03-02T12:51:19;0.50;;;0.50;;
20842;SDS011;26719;51.440;-2.574;2023-03-02T12:53:46;0.30;;;0.30;;
20842;SDS011;26719;51.440;-2.574;2023-03-02T12:56:25;0.40;;;0.40;;
20842;SDS011;26719;51.440;-2.574;2023-03-02T12:58:51;0.40;;;0.40;;
20842;SDS011;26719;51.440;-2.574;2023-03-02T13:01:24;0.43;;;0.43;;
20842;SDS011;26719;51.440;-2.574;2023-03-02T13:03:52;0.40;;;0.40;;
20842;SDS011;26719;51.440;-2.574;2023-03-02T13:06:18;0.40;;;0.40;;
20842;SDS011;26719;51.440;-2.574;2023-03-02T13:08:47;0.30;;;0.30;;
20842;SDS011;26719;51.440;-2.574;2023-03-02T13:11:19;0.30;;;0.30;;
20842;SDS011;26719;51.440;-2.574;2023-03-02T13:13:45;0.40;;;0.40;;
20842;SDS011;26719;51.440;-2.574;2023-03-02T13:18:44;0.30;;;0.30;;
20842;SDS011;26719;51.440;-2.574;2023-03-02T13:21:11;0.40;;;0.40;;
20842;SDS011;26719;51.440;-2.574;2023-03-02T13:23:43;0.47;;;0.47;;
20842;SDS011;26719;51.440;-2.574;2023-03-02T13:29:01;0.40;;;0.40;;
20842;SDS011;26719;51.440;-2.574;2023-03-02T13:31:28;0.40;;;0.40;;
20842;SDS011;26719;51.440;-2.574;2023-03-02T13:33:55;0.50;;;0.50;;
20842;SDS011;26719;51.440;-2.574;2023-03-02T13:36:23;0.50;;;0.50;;
20842;SDS011;26719;51.440;-2.574;2023-03-02T13:38:52;0.40;;;0.40;;
20842;SDS011;26719;51.440;-2.574;2023-03-02T13:41:22;0.40;;;0.40;;
20842;SDS011;26719;51.440;-2.574;2023-03-02T13:43:48;0.40;;;0.40;;
20842;SDS011;26719;51.440;-2.574;2023-03-02T13:48:51;0.40;;;0.40;;
20842;SDS011;26719;51.440;-2.574;2023-03-02T13:51:18;0.40;;;0.40;;
20842;SDS011;26719;51.440;-2.574;2023-03-02T13:53:55;0.40;;;0.40;;
20842;SDS011;26719;51.440;-2.574;2023-03-02T13:56:27;0.50;;;0.50;;
20842;SDS011;26719;51.440;-2.574;2023-03-02T13:58:53;0.53;;;0.53;;
20842;SDS011;26719;51.440;-2.574;2023-03-02T14:01:19;0.50;;;0.50;;
20842;SDS011;26719;51.440;-2.574;2023-03-02T14:03:45;0.30;;;0.30;;
20842;SDS011;26719;51.440;-2.574;2023-03-02T14:06:11;0.40;;;0.40;;
20842;SDS011;26719;51.440;-2.574;2023-03-02T14:08:37;0.30;;;0.30;;
20842;SDS011;26719;51.440;-2.574;2023-03-02T14:11:03;0.40;;;0.40;;
20842;SDS011;26719;51.440;-2.574;2023-03-02T14:13:49;0.50;;;0.50;;
20842;SDS011;26719;51.440;-2.574;2023-03-02T14:16:16;0.43;;;0.43;;
20842;SDS011;26719;51.440;-2.574;2023-03-02T14:18:46;0.50;;;0.50;;
20842;SDS011;26719;51.440;-2.574;2023-03-02T14:21:16;0.40;;;0.40;;
20842;SDS011;26719;51.440;-2.574;2023-03-02T14:23:43;0.50;;;0.50;;
20842;SDS011;26719;51.440;-2.574;2023-03-02T14:28:44;0.40;;;0.40;;
20842;SDS011;26719;51.440;-2.574;2023-03-02T14:31:10;0.40;;;0.40;;
20842;SDS011;26719;51.440;-2.574;2023-03-02T14:33:36;0.50;;;0.50;;
20842;SDS011;26719;51.440;-2.574;2023-03-02T14:36:03;0.40;;;0.40;;
20842;SDS011;26719;51.440;-2.574;2023-03-02T14:38:30;0.37;;;0.37;;
20842;SDS011;26719;51.440;-2.574;2023-03-02T14:40:56;0.50;;;0.50;;
20842;SDS011;26719;51.440;-2.574;2023-03-02T14:43:22;0.50;;;0.50;;
20842;SDS011;26719;51.440;-2.574;2023-03-02T14:45:49;0.30;;;0.30;;
20842;SDS011;26719;51.440;-2.574;2023-03-02T14:48:16;0.40;;;0.40;;
20842;SDS011;26719;51.440;-2.574;2023-03-02T14:50:43;0.30;;;0.30;;
20842;SDS011;26719;51.440;-2.574;2023-03-02T14:53:15;0.43;;;0.43;;
20842;SDS011;26719;51.440;-2.574;2023-03-02T14:55:42;0.40;;;0.40;;
20842;SDS011;26719;51.440;-2.574;2023-03-02T14:58:12;0.50;;;0.50;;
20842;SDS011;26719;51.440;-2.574;2023-03-02T15:00:39;0.60;;;0.60;;
20842;SDS011;26719;51.440;-2.574;2023-03-02T15:03:06;0.40;;;0.40;;
20842;SDS011;26719;51.440;-2.574;2023-03-02T15:05:32;0.50;;;0.50;;
20842;SDS011;26719;51.440;-2.574;2023-03-02T15:07:58;0.60;;;0.60;;
20842;SDS011;26719;51.440;-2.574;2023-03-02T15:10:24;0.40;;;0.40;;
20842;SDS011;26719;51.440;-2.574;2023-03-02T15:12:50;0.50;;;0.50;;
20842;SDS011;26719;51.440;-2.574;2023-03-02T15:15:16;0.40;;;0.40;;
20842;SDS011;26719;51.440;-2.574;2023-03-02T15:17:42;0.60;;;0.60;;
20842;SDS011;26719;51.440;-2.574;2023-03-02T15:20:12;0.50;;;0.50;;
20842;SDS011;26719;51.440;-2.574;2023-03-02T15:22:39;0.40;;;0.40;;
20842;SDS011;26719;51.440;-2.574;2023-03-02T15:25:05;0.50;;;0.50;;
20842;SDS011;26719;51.440;-2.574;2023-03-02T15:27:31;0.40;;;0.40;;
20842;SDS011;26719;51.440;-2.574;2023-03-02T15:29:57;0.50;;;0.50;;
20842;SDS011;26719;51.440;-2.574;2023-03-02T15:32:23;0.40;;;0.40;;
20842;SDS011;26719;51.440;-2.574;2023-03-02T15:34:50;0.40;;;0.40;;
20842;SDS011;26719;51.440;-2.574;2023-03-02T15:37:16;0.40;;;0.40;;
20842;SDS011;26719;51.440;-2.574;2023-03-02T15:39:42;0.40;;;0.40;;
20842;SDS011;26719;51.440;-2.574;2023-03-02T15:42:08;0.40;;;0.40;;
20842;SDS011;26719;51.440;-2.574;2023-03-02T15:44:35;0.40;;;0.40;;
20842;SDS011;26719;51.440;-2.574;2023-03-02T15:47:01;0.40;;;0.40;;
20842;SDS011;26719;51.440;-2.574;2023-03-02T15:49:27;0.50;;;0.50;;
20842;SDS011;26719;51.440;-2.574;2023-03-02T15:51:56;0.40;;;0.40;;
20842;SDS011;26719;51.440;-2.574;2023-03-02T15:54:23;0.50;;;0.50;;